createdAt,value
2022-09-18T00:00:45.242Z,93.51
2022-09-18T00:01:45.220Z,93.51
2022-09-18T00:02:45.263Z,94.12
2022-09-18T00:03:45.181Z,93.71
2022-09-18T00:04:45.153Z,93.71
2022-09-18T00:05:45.155Z,92.89
2022-09-18T00:06:45.141Z,93.51
2022-09-18T00:07:45.106Z,93.20
2022-09-18T00:08:45.110Z,93.10
2022-09-18T00:09:45.092Z,93.20
2022-09-18T00:10:45.088Z,93.10
2022-09-18T00:11:45.105Z,93.10
2022-09-18T00:12:45.051Z,92.99
2022-09-18T00:13:45.156Z,93.86
2022-09-18T00:14:45.047Z,93.82
2022-09-18T00:15:45.059Z,94.12
2022-09-18T00:16:45.045Z,93.71
2022-09-18T00:17:45.043Z,94.23
2022-09-18T00:18:44.994Z,93.76
2022-09-18T00:19:44.990Z,94.23
2022-09-18T00:20:44.990Z,94.12
2022-09-18T00:21:44.992Z,93.61
2022-09-18T00:22:44.950Z,92.79
2022-09-18T00:23:44.948Z,93.10
2022-09-18T00:24:44.975Z,93.71
2022-09-18T00:25:44.926Z,93.40
2022-09-18T00:26:44.958Z,93.67
2022-09-18T00:27:44.907Z,93.77
2022-09-18T00:28:44.911Z,93.46
2022-09-18T00:29:44.968Z,93.36
2022-09-18T00:30:44.872Z,93.40
2022-09-18T00:31:44.930Z,93.87
2022-09-18T00:32:44.873Z,92.85
2022-09-18T00:33:44.828Z,93.16
2022-09-18T00:34:44.819Z,93.36
2022-09-18T00:35:44.825Z,93.05
2022-09-18T00:36:44.807Z,93.36
2022-09-18T00:37:44.824Z,93.77
2022-09-18T00:38:44.775Z,92.95
2022-09-18T00:39:44.760Z,93.71
2022-09-18T00:40:44.795Z,93.10
2022-09-18T00:41:44.754Z,92.95
2022-09-18T00:42:44.750Z,93.51
2022-09-18T00:43:44.742Z,92.89
2022-09-18T00:44:44.711Z,92.85
2022-09-18T00:45:44.779Z,92.23
2022-09-18T00:46:44.718Z,93.57
2022-09-18T00:47:44.727Z,92.64
2022-09-18T00:48:44.688Z,93.26
2022-09-18T00:49:44.657Z,93.26
2022-09-18T00:50:44.630Z,92.64
2022-09-18T00:51:44.641Z,93.67
2022-09-18T00:52:44.680Z,93.16
2022-09-18T00:53:44.625Z,92.33
2022-09-18T00:54:44.776Z,92.44
2022-09-18T00:55:44.592Z,91.82
2022-09-18T00:56:44.572Z,93.26
2022-09-18T00:57:44.574Z,93.36
2022-09-18T00:58:44.579Z,93.36
2022-09-18T00:59:44.560Z,93.46
2022-09-18T01:00:44.668Z,93.26
2022-09-18T01:01:44.675Z,92.85
2022-09-18T01:02:44.539Z,93.46
2022-09-18T01:03:44.534Z,93.77
2022-09-18T01:04:44.494Z,93.46
2022-09-18T01:05:44.491Z,92.95
2022-09-18T01:06:44.479Z,93.05
2022-09-18T01:07:44.482Z,92.54
2022-09-18T01:08:44.490Z,91.82
2022-09-18T01:09:44.439Z,92.64
2022-09-18T01:10:44.435Z,92.44
2022-09-18T01:11:44.417Z,92.33
2022-09-18T01:12:44.403Z,92.64
2022-09-18T01:13:44.438Z,92.44
2022-09-18T01:14:44.405Z,92.03
2022-09-18T01:15:44.425Z,91.82
2022-09-18T01:16:44.361Z,92.33
2022-09-18T01:17:44.408Z,92.64
2022-09-18T01:18:44.371Z,92.54
2022-09-18T01:19:44.351Z,92.23
2022-09-18T01:20:44.310Z,92.44
2022-09-18T01:21:44.312Z,92.40
2022-09-18T01:22:44.294Z,92.50
2022-09-18T01:23:44.302Z,92.44
2022-09-18T01:24:44.292Z,92.23
2022-09-18T01:25:44.272Z,92.40
2022-09-18T01:26:44.250Z,93.36
2022-09-18T01:27:44.254Z,93.16
2022-09-18T01:28:44.236Z,93.16
2022-09-18T01:29:44.245Z,92.85
2022-09-18T01:30:44.222Z,93.73
2022-09-18T01:31:44.239Z,93.77
2022-09-18T01:32:44.227Z,93.67
2022-09-18T01:33:44.243Z,93.46
2022-09-18T01:34:44.206Z,94.08
2022-09-18T01:35:44.159Z,94.08
2022-09-18T01:36:44.149Z,94.29
2022-09-18T01:37:44.176Z,94.08
2022-09-18T01:38:44.123Z,93.87
2022-09-18T01:39:44.137Z,93.67
2022-09-18T01:40:44.117Z,93.67
2022-09-18T01:41:44.089Z,93.93
2022-09-18T01:42:44.108Z,93.05
2022-09-18T01:43:44.054Z,93.46
2022-09-18T01:44:44.064Z,93.77
2022-09-18T01:45:44.084Z,93.67
2022-09-18T01:46:44.061Z,93.77
2022-09-18T01:47:44.031Z,93.67
2022-09-18T01:48:45.093Z,93.67
2022-09-18T01:49:44.083Z,93.87
2022-09-18T01:50:44.047Z,93.67
2022-09-18T01:51:43.980Z,94.29
2022-09-18T01:52:43.956Z,93.87
2022-09-18T01:53:43.954Z,93.77
2022-09-18T01:54:44.948Z,93.57
2022-09-18T01:55:43.984Z,93.87
2022-09-18T01:56:43.942Z,94.08
2022-09-18T01:57:43.937Z,94.18
2022-09-18T01:58:43.915Z,93.98
2022-09-18T01:59:43.906Z,94.54
2022-09-18T02:00:43.919Z,94.74
2022-09-18T02:01:44.104Z,94.49
2022-09-18T02:02:43.932Z,94.59
2022-09-18T02:03:43.876Z,93.92
2022-09-18T02:04:43.854Z,94.29
2022-09-18T02:05:44.021Z,93.77
2022-09-18T02:06:43.849Z,93.87
2022-09-18T02:07:43.798Z,94.29
2022-09-18T02:08:43.789Z,93.67
2022-09-18T02:09:43.774Z,93.67
2022-09-18T02:10:43.776Z,93.77
2022-09-18T02:11:43.782Z,93.46
2022-09-18T02:12:44.116Z,93.67
2022-09-18T02:13:43.713Z,92.95
2022-09-18T02:14:43.727Z,93.36
2022-09-18T02:15:43.734Z,94.08
2022-09-18T02:16:43.735Z,93.77
2022-09-18T02:17:43.690Z,93.77
2022-09-18T02:18:43.705Z,93.57
2022-09-18T02:19:43.650Z,93.57
2022-09-18T02:20:43.653Z,94.08
2022-09-18T02:21:44.034Z,93.67
2022-09-18T02:22:43.650Z,94.29
2022-09-18T02:23:43.622Z,93.77
2022-09-18T02:24:46.227Z,93.77
2022-09-18T02:25:43.605Z,94.49
2022-09-18T02:26:43.655Z,94.59
2022-09-18T02:27:43.583Z,94.90
2022-09-18T02:28:43.575Z,93.77
2022-09-18T02:29:43.573Z,94.08
2022-09-18T02:30:43.557Z,93.57
2022-09-18T02:31:43.623Z,93.67
2022-09-18T02:32:43.548Z,93.57
2022-09-18T02:33:43.498Z,93.77
2022-09-18T02:34:43.544Z,94.23
2022-09-18T02:35:43.492Z,94.84
2022-09-18T02:36:43.509Z,93.82
2022-09-18T02:37:43.567Z,94.02
2022-09-18T02:38:43.465Z,93.61
2022-09-18T02:39:43.469Z,93.67
2022-09-18T02:40:43.436Z,93.57
2022-09-18T02:41:43.449Z,93.67
2022-09-18T02:42:43.456Z,94.18
2022-09-18T02:43:43.418Z,93.67
2022-09-18T02:44:43.421Z,93.57
2022-09-18T02:45:43.391Z,94.12
2022-09-18T02:46:43.451Z,93.82
2022-09-18T02:47:43.417Z,93.92
2022-09-18T02:48:43.356Z,93.16
2022-09-18T02:49:43.353Z,93.77
2022-09-18T02:50:43.329Z,92.74
2022-09-18T02:51:43.347Z,92.99
2022-09-18T02:52:43.344Z,93.71
2022-09-18T02:53:44.382Z,93.67
2022-09-18T02:54:43.292Z,93.46
2022-09-18T02:55:43.265Z,93.71
2022-09-18T02:56:43.294Z,93.05
2022-09-18T02:57:43.283Z,93.51
2022-09-18T02:58:43.254Z,93.46
2022-09-18T02:59:43.235Z,93.98
2022-09-18T03:00:43.227Z,93.63
2022-09-18T03:01:43.356Z,93.98
2022-09-18T03:02:43.252Z,92.95
2022-09-18T03:03:43.212Z,93.05
2022-09-18T03:04:43.181Z,93.40
2022-09-18T03:05:43.178Z,93.67
2022-09-18T03:06:43.164Z,93.05
2022-09-18T03:07:43.804Z,93.01
2022-09-18T03:08:43.145Z,93.46
2022-09-18T03:09:43.205Z,93.16
2022-09-18T03:10:43.122Z,93.36
2022-09-18T03:11:43.099Z,93.57
2022-09-18T03:12:43.106Z,93.16
2022-09-18T03:13:43.077Z,93.57
2022-09-18T03:14:43.059Z,92.85
2022-09-18T03:15:43.121Z,93.67
2022-09-18T03:16:43.618Z,92.85
2022-09-18T03:17:43.056Z,92.85
2022-09-18T03:18:43.000Z,93.67
2022-09-18T03:19:43.013Z,92.95
2022-09-18T03:20:42.989Z,93.67
2022-09-18T03:21:42.984Z,93.73
2022-09-18T03:22:42.985Z,93.52
2022-09-18T03:23:45.557Z,93.77
2022-09-18T03:24:42.961Z,93.98
2022-09-18T03:25:43.021Z,93.12
2022-09-18T03:26:43.930Z,93.46
2022-09-18T03:27:42.943Z,93.42
2022-09-18T03:28:42.907Z,93.46
2022-09-18T03:29:42.894Z,93.67
2022-09-18T03:30:42.895Z,93.98
2022-09-18T03:31:42.888Z,93.42
2022-09-18T03:32:42.914Z,93.46
2022-09-18T03:33:42.843Z,93.26
2022-09-18T03:34:42.840Z,94.39
2022-09-18T03:35:42.819Z,94.74
2022-09-18T03:36:42.806Z,94.33
2022-09-18T03:37:42.798Z,95.01
2022-09-18T03:38:42.831Z,94.02
2022-09-18T03:39:42.780Z,94.18
2022-09-18T03:40:47.169Z,94.95
2022-09-18T03:41:42.856Z,94.90
2022-09-18T03:42:42.738Z,94.95
2022-09-18T03:43:43.746Z,93.71
2022-09-18T03:44:42.739Z,93.71
2022-09-18T03:45:42.710Z,94.43
2022-09-18T03:46:42.768Z,93.82
2022-09-18T03:47:42.700Z,94.70
2022-09-18T03:48:42.731Z,93.67
2022-09-18T03:49:42.669Z,94.43
2022-09-18T03:50:42.661Z,94.02
2022-09-18T03:51:42.640Z,94.74
2022-09-18T03:52:42.636Z,94.70
2022-09-18T03:53:42.664Z,94.70
2022-09-18T03:54:42.626Z,94.49
2022-09-18T03:55:42.606Z,93.67
2022-09-18T03:56:42.594Z,93.82
2022-09-18T03:57:42.667Z,94.02
2022-09-18T03:58:42.580Z,94.33
2022-09-18T03:59:42.577Z,94.59
2022-09-18T04:00:42.535Z,94.49
2022-09-18T04:01:42.589Z,94.90
2022-09-18T04:02:42.602Z,94.29
2022-09-18T04:03:42.517Z,94.08
2022-09-18T04:04:42.533Z,94.49
2022-09-18T04:05:42.508Z,93.46
2022-09-18T04:06:42.497Z,93.98
2022-09-18T04:07:42.488Z,94.39
2022-09-18T04:08:42.466Z,94.59
2022-09-18T04:09:42.494Z,94.49
2022-09-18T04:10:42.472Z,93.98
2022-09-18T04:11:42.442Z,94.18
2022-09-18T04:12:42.422Z,94.08
2022-09-18T04:13:42.488Z,93.16
2022-09-18T04:14:42.458Z,93.77
2022-09-18T04:15:42.413Z,93.77
2022-09-18T04:16:42.385Z,92.95
2022-09-18T04:17:42.400Z,93.87
2022-09-18T04:18:42.353Z,92.85
2022-09-18T04:19:42.345Z,94.24
2022-09-18T04:20:42.345Z,93.46
2022-09-18T04:21:42.314Z,94.59
2022-09-18T04:22:42.305Z,93.98
2022-09-18T04:23:42.307Z,93.57
2022-09-18T04:24:42.278Z,93.77
2022-09-18T04:25:42.297Z,93.77
2022-09-18T04:26:42.259Z,94.29
2022-09-18T04:27:42.271Z,94.59
2022-09-18T04:28:42.233Z,94.29
2022-09-18T04:29:42.293Z,93.67
2022-09-18T04:30:42.240Z,93.77
2022-09-18T04:31:42.294Z,93.77
2022-09-18T04:32:42.210Z,92.85
2022-09-18T04:33:42.168Z,92.95
2022-09-18T04:34:42.178Z,93.16
2022-09-18T04:35:42.198Z,93.77
2022-09-18T04:36:42.173Z,92.95
2022-09-18T04:37:42.161Z,93.87
2022-09-18T04:38:42.148Z,93.32
2022-09-18T04:39:42.155Z,94.34
2022-09-18T04:40:42.247Z,92.95
2022-09-18T04:41:42.109Z,93.67
2022-09-18T04:42:42.075Z,93.77
2022-09-18T04:43:42.070Z,93.77
2022-09-18T04:44:42.067Z,93.77
2022-09-18T04:45:42.127Z,93.87
2022-09-18T04:46:42.098Z,93.57
2022-09-18T04:47:42.020Z,93.57
2022-09-18T04:48:42.032Z,94.80
2022-09-18T04:49:42.023Z,93.87
2022-09-18T04:50:42.007Z,94.08
2022-09-18T04:51:43.370Z,94.29
2022-09-18T04:52:41.977Z,94.64
2022-09-18T04:53:41.980Z,93.82
2022-09-18T04:54:41.982Z,94.64
2022-09-18T04:55:41.949Z,94.74
2022-09-18T04:56:41.967Z,94.29
2022-09-18T04:57:41.928Z,94.95
2022-09-18T04:58:41.911Z,95.01
2022-09-18T04:59:41.888Z,94.29
2022-09-18T05:00:42.086Z,95.10
2022-09-18T05:01:42.009Z,94.49
2022-09-18T05:02:41.892Z,94.59
2022-09-18T05:03:41.870Z,95.31
2022-09-18T05:04:41.836Z,94.18
2022-09-18T05:05:41.839Z,94.59
2022-09-18T05:06:41.891Z,95.10
2022-09-18T05:07:41.814Z,94.76
2022-09-18T05:08:41.802Z,94.49
2022-09-18T05:09:41.945Z,94.59
2022-09-18T05:10:41.758Z,94.80
2022-09-18T05:11:41.782Z,94.70
2022-09-18T05:12:41.772Z,94.84
2022-09-18T05:13:41.739Z,94.70
2022-09-18T05:14:41.740Z,95.83
2022-09-18T05:15:41.773Z,95.52
2022-09-18T05:16:41.731Z,94.29
2022-09-18T05:17:41.801Z,95.72
2022-09-18T05:18:41.690Z,93.73
2022-09-18T05:19:41.691Z,94.59
2022-09-18T05:20:41.678Z,95.01
2022-09-18T05:21:41.657Z,95.62
2022-09-18T05:22:41.684Z,95.47
2022-09-18T05:23:41.761Z,95.52
2022-09-18T05:24:41.630Z,95.83
2022-09-18T05:25:42.606Z,95.78
2022-09-18T05:26:41.608Z,95.89
2022-09-18T05:27:41.643Z,95.68
2022-09-18T05:28:41.579Z,95.89
2022-09-18T05:29:41.581Z,95.27
2022-09-18T05:30:41.546Z,95.37
2022-09-18T05:31:41.652Z,94.55
2022-09-18T05:32:41.543Z,94.85
2022-09-18T05:33:41.626Z,94.65
2022-09-18T05:34:41.529Z,95.68
2022-09-18T05:35:41.502Z,96.40
2022-09-18T05:36:41.499Z,96.25
2022-09-18T05:37:41.507Z,94.20
2022-09-18T05:38:41.485Z,94.10
2022-09-18T05:39:41.444Z,94.10
2022-09-18T05:40:41.479Z,94.40
2022-09-18T05:41:41.466Z,94.20
2022-09-18T05:42:41.412Z,95.02
2022-09-18T05:43:41.501Z,95.32
2022-09-18T05:44:41.402Z,95.02
2022-09-18T05:45:41.389Z,95.43
2022-09-18T05:46:41.458Z,94.81
2022-09-18T05:47:41.363Z,94.71
2022-09-18T05:48:42.414Z,94.10
2022-09-18T05:49:41.416Z,93.23
2022-09-18T05:50:41.344Z,93.68
2022-09-18T05:51:41.326Z,92.86
2022-09-18T05:52:41.308Z,93.59
2022-09-18T05:53:41.339Z,94.61
2022-09-18T05:54:41.336Z,93.99
2022-09-18T05:55:41.267Z,93.48
2022-09-18T05:56:41.279Z,94.04
2022-09-18T05:57:41.250Z,94.30
2022-09-18T05:58:41.265Z,95.37
2022-09-18T05:59:41.277Z,96.09
2022-09-18T06:00:41.219Z,95.37
2022-09-18T06:01:44.928Z,95.42
2022-09-18T06:02:41.278Z,96.09
2022-09-18T06:03:41.206Z,95.62
2022-09-18T06:04:41.188Z,96.23
2022-09-18T06:05:41.242Z,96.50
2022-09-18T06:06:41.154Z,95.98
2022-09-18T06:07:41.134Z,97.12
2022-09-18T06:08:41.130Z,97.37
2022-09-18T06:09:41.144Z,95.83
2022-09-18T06:10:41.432Z,96.19
2022-09-18T06:11:42.115Z,95.83
2022-09-18T06:12:41.085Z,96.55
2022-09-18T06:13:41.066Z,97.06
2022-09-18T06:14:41.104Z,96.23
2022-09-18T06:15:41.053Z,96.03
2022-09-18T06:16:42.572Z,97.27
2022-09-18T06:17:41.033Z,97.02
2022-09-18T06:18:41.007Z,96.40
2022-09-18T06:19:41.041Z,96.34
2022-09-18T06:20:40.996Z,96.50
2022-09-18T06:21:41.051Z,96.09
2022-09-18T06:22:40.961Z,95.93
2022-09-18T06:23:40.999Z,96.91
2022-09-18T06:24:40.961Z,96.09
2022-09-18T06:25:40.932Z,95.89
2022-09-18T06:26:40.933Z,95.98
2022-09-18T06:27:40.906Z,95.06
2022-09-18T06:28:40.896Z,95.17
2022-09-18T06:29:40.892Z,96.14
2022-09-18T06:30:40.893Z,95.37
2022-09-18T06:31:40.957Z,95.37
2022-09-18T06:32:40.864Z,95.43
2022-09-18T06:33:40.915Z,95.53
2022-09-18T06:34:40.832Z,95.64
2022-09-18T06:35:40.837Z,95.43
2022-09-18T06:36:40.806Z,95.94
2022-09-18T06:37:40.861Z,95.23
2022-09-18T06:38:41.793Z,94.92
2022-09-18T06:39:40.766Z,94.40
2022-09-18T06:40:40.845Z,94.20
2022-09-18T06:41:40.758Z,95.32
2022-09-18T06:42:45.263Z,95.12
2022-09-18T06:43:41.725Z,95.43
2022-09-18T06:44:40.710Z,94.81
2022-09-18T06:45:40.744Z,95.28
2022-09-18T06:46:40.733Z,94.40
2022-09-18T06:47:40.673Z,95.94
2022-09-18T06:48:40.659Z,94.40
2022-09-18T06:49:41.655Z,94.67
2022-09-18T06:50:40.629Z,94.61
2022-09-18T06:51:40.645Z,95.02
2022-09-18T06:52:40.616Z,94.40
2022-09-18T06:53:40.684Z,94.20
2022-09-18T06:54:40.592Z,93.59
2022-09-18T06:55:41.579Z,94.30
2022-09-18T06:56:41.262Z,94.30
2022-09-18T06:57:40.563Z,94.36
2022-09-18T06:58:40.556Z,94.30
2022-09-18T06:59:40.547Z,94.46
2022-09-18T07:00:40.554Z,93.95
2022-09-18T07:01:40.594Z,94.36
2022-09-18T07:02:40.495Z,94.46
2022-09-18T07:03:40.491Z,94.87
2022-09-18T07:04:40.488Z,94.15
2022-09-18T07:05:41.084Z,93.74
2022-09-18T07:06:40.469Z,93.44
2022-09-18T07:07:40.452Z,93.49
2022-09-18T07:08:40.445Z,93.74
2022-09-18T07:09:40.517Z,93.60
2022-09-18T07:10:40.437Z,92.88
2022-09-18T07:11:40.425Z,91.86
2022-09-18T07:12:40.398Z,92.06
2022-09-18T07:13:40.383Z,92.10
2022-09-18T07:14:40.377Z,93.64
2022-09-18T07:15:40.374Z,93.64
2022-09-18T07:16:40.415Z,93.49
2022-09-18T07:17:40.333Z,92.93
2022-09-18T07:18:40.336Z,93.90
2022-09-18T07:19:40.316Z,92.68
2022-09-18T07:20:40.304Z,94.11
2022-09-18T07:21:40.329Z,93.80
2022-09-18T07:22:44.908Z,92.06
2022-09-18T07:23:40.312Z,93.02
2022-09-18T07:24:40.253Z,93.80
2022-09-18T07:25:40.334Z,94.62
2022-09-18T07:26:40.247Z,93.60
2022-09-18T07:27:40.233Z,93.39
2022-09-18T07:28:40.228Z,92.27
2022-09-18T07:29:40.208Z,92.98
2022-09-18T07:30:40.209Z,93.44
2022-09-18T07:31:40.234Z,93.60
2022-09-18T07:32:40.197Z,94.21
2022-09-18T07:33:40.158Z,94.27
2022-09-18T07:34:40.151Z,93.45
2022-09-18T07:35:40.150Z,93.08
2022-09-18T07:36:40.126Z,92.12
2022-09-18T07:37:40.154Z,92.12
2022-09-18T07:38:40.114Z,90.99
2022-09-18T07:39:40.085Z,89.76
2022-09-18T07:40:40.188Z,89.76
2022-09-18T07:41:40.149Z,90.79
2022-09-18T07:42:40.100Z,90.89
2022-09-18T07:43:40.043Z,89.56
2022-09-18T07:44:40.029Z,88.29
2022-09-18T07:45:40.024Z,89.04
2022-09-18T07:46:40.093Z,89.92
2022-09-18T07:47:40.005Z,89.62
2022-09-18T07:48:40.005Z,89.42
2022-09-18T07:49:39.980Z,89.00
2022-09-18T07:50:39.954Z,89.31
2022-09-18T07:51:39.955Z,88.18
2022-09-18T07:52:39.934Z,88.90
2022-09-18T07:53:39.953Z,90.23
2022-09-18T07:54:39.911Z,89.97
2022-09-18T07:55:39.907Z,90.28
2022-09-18T07:56:43.571Z,90.89
2022-09-18T07:57:40.969Z,90.37
2022-09-18T07:58:39.922Z,90.64
2022-09-18T07:59:39.848Z,90.44
2022-09-18T08:00:39.868Z,90.34
2022-09-18T08:01:39.913Z,89.76
2022-09-18T08:02:39.923Z,90.79
2022-09-18T08:03:41.549Z,90.89
2022-09-18T08:04:39.814Z,90.83
2022-09-18T08:05:39.799Z,90.79
2022-09-18T08:06:39.770Z,90.79
2022-09-18T08:07:39.776Z,90.73
2022-09-18T08:08:39.768Z,91.24
2022-09-18T08:09:39.740Z,91.03
2022-09-18T08:10:39.836Z,91.14
2022-09-18T08:11:39.736Z,91.65
2022-09-18T08:12:39.715Z,91.69
2022-09-18T08:13:39.832Z,91.35
2022-09-18T08:14:39.691Z,92.16
2022-09-18T08:15:39.686Z,92.98
2022-09-18T08:16:39.777Z,92.00
2022-09-18T08:17:39.651Z,92.72
2022-09-18T08:18:39.697Z,93.13
2022-09-18T08:19:39.634Z,93.29
2022-09-18T08:20:39.623Z,92.98
2022-09-18T08:21:39.616Z,92.36
2022-09-18T08:22:39.604Z,91.65
2022-09-18T08:23:39.582Z,92.32
2022-09-18T08:24:39.597Z,92.32
2022-09-18T08:25:39.584Z,91.71
2022-09-18T08:26:39.560Z,91.40
2022-09-18T08:27:39.544Z,91.97
2022-09-18T08:28:39.542Z,91.67
2022-09-18T08:29:39.623Z,92.28
2022-09-18T08:30:39.498Z,92.49
2022-09-18T08:31:39.575Z,89.62
2022-09-18T08:32:39.478Z,90.54
2022-09-18T08:33:39.465Z,90.50
2022-09-18T08:34:39.482Z,90.95
2022-09-18T08:35:39.437Z,91.52
2022-09-18T08:36:39.429Z,90.86
2022-09-18T08:37:39.428Z,90.66
2022-09-18T08:38:39.410Z,91.23
2022-09-18T08:39:39.430Z,90.82
2022-09-18T08:40:39.488Z,89.09
2022-09-18T08:41:39.376Z,88.17
2022-09-18T08:42:39.371Z,88.98
2022-09-18T08:43:39.364Z,90.00
2022-09-18T08:44:39.353Z,88.98
2022-09-18T08:45:39.428Z,88.88
2022-09-18T08:46:39.345Z,88.78
2022-09-18T08:47:39.309Z,87.65
2022-09-18T08:48:39.305Z,89.39
2022-09-18T08:49:39.298Z,90.06
2022-09-18T08:50:39.269Z,88.64
2022-09-18T08:51:39.256Z,87.30
2022-09-18T08:52:39.245Z,87.96
2022-09-18T08:53:39.232Z,88.17
2022-09-18T08:54:39.265Z,88.26
2022-09-18T08:55:39.357Z,87.65
2022-09-18T08:56:39.209Z,87.00
2022-09-18T08:57:39.192Z,85.97
2022-09-18T08:58:39.180Z,86.29
2022-09-18T08:59:39.204Z,88.12
2022-09-18T09:00:39.214Z,86.35
2022-09-18T09:01:39.243Z,85.79
2022-09-18T09:02:39.150Z,85.65
2022-09-18T09:03:39.130Z,84.90
2022-09-18T09:04:39.193Z,84.22
2022-09-18T09:05:39.125Z,84.12
2022-09-18T09:06:39.080Z,85.02
2022-09-18T09:07:39.093Z,86.69
2022-09-18T09:08:39.065Z,86.59
2022-09-18T09:09:39.046Z,86.04
2022-09-18T09:10:39.066Z,85.28
2022-09-18T09:11:39.016Z,84.98
2022-09-18T09:12:39.017Z,85.42
2022-09-18T09:13:39.008Z,85.28
2022-09-18T09:14:56.792Z,84.67
2022-09-18T09:15:40.026Z,85.12
2022-09-18T09:16:39.004Z,85.02
2022-09-18T09:17:39.041Z,84.81
2022-09-18T09:18:38.945Z,84.09
2022-09-18T09:19:38.940Z,84.61
2022-09-18T09:20:39.064Z,85.02
2022-09-18T09:21:38.903Z,85.73
2022-09-18T09:22:38.910Z,84.03
2022-09-18T09:23:38.882Z,87.10
2022-09-18T09:24:38.890Z,85.16
2022-09-18T09:25:38.865Z,84.24
2022-09-18T09:26:38.872Z,84.75
2022-09-18T09:27:38.844Z,84.03
2022-09-18T09:28:38.821Z,85.06
2022-09-18T09:29:38.819Z,85.88
2022-09-18T09:30:38.801Z,86.59
2022-09-18T09:31:38.865Z,85.53
2022-09-18T09:32:38.777Z,83.48
2022-09-18T09:33:38.841Z,84.30
2022-09-18T09:34:38.753Z,84.36
2022-09-18T09:35:38.751Z,83.95
2022-09-18T09:36:38.782Z,84.98
2022-09-18T09:37:38.728Z,85.08
2022-09-18T09:38:38.720Z,84.06
2022-09-18T09:39:38.701Z,83.85
2022-09-18T09:40:38.750Z,86.65
2022-09-18T09:41:38.712Z,84.98
2022-09-18T09:42:38.669Z,84.36
2022-09-18T09:43:38.646Z,84.16
2022-09-18T09:44:38.654Z,84.16
2022-09-18T09:45:38.630Z,84.09
2022-09-18T09:46:38.668Z,84.57
2022-09-18T09:47:38.637Z,85.02
2022-09-18T09:48:38.590Z,84.16
2022-09-18T09:49:38.655Z,85.02
2022-09-18T09:50:39.056Z,85.53
2022-09-18T09:51:38.566Z,84.71
2022-09-18T09:52:38.578Z,87.30
2022-09-18T09:53:38.549Z,86.94
2022-09-18T09:54:38.543Z,87.14
2022-09-18T09:55:38.523Z,86.94
2022-09-18T09:56:38.509Z,86.63
2022-09-18T09:57:38.535Z,88.06
2022-09-18T09:58:38.480Z,87.55
2022-09-18T09:59:38.871Z,88.02
2022-09-18T10:00:38.494Z,88.41
2022-09-18T10:01:38.456Z,89.80
2022-09-18T10:02:38.485Z,89.39
2022-09-18T10:03:38.414Z,89.90
2022-09-18T10:04:38.419Z,89.50
2022-09-18T10:05:38.485Z,90.41
2022-09-18T10:06:38.390Z,89.53
2022-09-18T10:07:38.388Z,90.25
2022-09-18T10:08:38.385Z,90.45
2022-09-18T10:11:43.463Z,90.15
2022-09-18T10:12:43.568Z,90.36
2022-09-18T10:13:43.434Z,90.97
2022-09-18T10:14:43.524Z,90.91
2022-09-18T10:15:43.367Z,91.48
2022-09-18T10:16:43.670Z,93.12
2022-09-18T10:17:43.299Z,92.19
2022-09-18T10:18:43.313Z,91.63
2022-09-18T10:19:43.274Z,92.60
2022-09-18T10:20:43.342Z,88.71
2022-09-18T10:21:43.257Z,88.65
2022-09-18T10:22:43.236Z,87.22
2022-09-18T10:23:43.227Z,88.56
2022-09-18T10:24:43.251Z,89.11
2022-09-18T10:25:43.203Z,88.39
2022-09-18T10:26:43.181Z,89.21
2022-09-18T10:27:43.178Z,88.18
2022-09-18T10:28:43.154Z,88.76
2022-09-18T10:29:43.221Z,87.84
2022-09-18T10:30:43.140Z,87.53
2022-09-18T10:31:43.165Z,86.30
2022-09-18T10:32:43.112Z,88.45
2022-09-18T10:33:43.105Z,87.16
2022-09-18T10:34:43.124Z,87.73
2022-09-18T10:35:43.120Z,87.84
2022-09-18T10:36:43.146Z,88.29
2022-09-18T10:37:43.056Z,87.73
2022-09-18T10:38:43.030Z,88.49
2022-09-18T10:39:43.049Z,88.70
2022-09-18T10:40:43.078Z,89.42
2022-09-18T10:41:43.003Z,89.89
2022-09-18T10:42:42.983Z,89.47
2022-09-18T10:43:42.993Z,89.37
2022-09-18T10:44:42.967Z,89.17
2022-09-18T10:45:42.978Z,89.17
2022-09-18T10:46:42.985Z,90.03
2022-09-18T10:47:42.926Z,89.47
2022-09-18T10:48:42.959Z,90.44
2022-09-18T10:49:42.904Z,91.67
2022-09-18T10:50:42.910Z,91.05
2022-09-18T10:51:42.877Z,91.20
2022-09-18T10:52:42.951Z,92.90
2022-09-18T10:53:43.448Z,90.23
2022-09-18T10:54:42.904Z,90.13
2022-09-18T10:55:42.922Z,91.77
2022-09-18T10:56:42.803Z,90.34
2022-09-18T10:57:43.504Z,91.52
2022-09-18T10:58:42.781Z,90.95
2022-09-18T10:59:42.791Z,91.73
2022-09-18T11:00:42.793Z,91.52
2022-09-18T11:01:44.982Z,91.52
2022-09-18T11:02:42.730Z,91.63
2022-09-18T11:03:42.729Z,91.73
2022-09-18T11:04:42.779Z,91.31
2022-09-18T11:05:42.745Z,92.19
2022-09-18T11:06:42.704Z,92.10
2022-09-18T11:07:42.742Z,91.27
2022-09-18T11:08:42.829Z,90.36
2022-09-18T11:09:42.655Z,91.38
2022-09-18T11:10:42.662Z,91.01
2022-09-18T11:11:42.648Z,90.92
2022-09-18T11:12:42.609Z,90.31
2022-09-18T11:13:42.654Z,90.05
2022-09-18T11:14:42.634Z,90.09
2022-09-18T11:15:42.575Z,90.36
2022-09-18T11:16:42.684Z,91.99
2022-09-18T11:17:42.547Z,91.48
2022-09-18T11:18:42.527Z,90.36
2022-09-18T11:19:42.529Z,90.15
2022-09-18T11:20:42.795Z,91.89
2022-09-18T11:21:42.706Z,91.99
2022-09-18T11:22:42.569Z,90.66
2022-09-18T11:23:42.506Z,90.77
2022-09-18T11:24:47.206Z,90.15
2022-09-18T11:25:43.577Z,90.30
2022-09-18T11:26:42.425Z,90.45
2022-09-18T11:27:42.449Z,90.70
2022-09-18T11:28:42.490Z,91.42
2022-09-18T11:29:42.450Z,92.14
2022-09-18T11:30:42.432Z,92.10
2022-09-18T11:31:42.516Z,92.10
2022-09-18T11:32:42.503Z,91.78
2022-09-18T11:33:42.357Z,93.12
2022-09-18T11:34:42.329Z,91.89
2022-09-18T11:35:42.383Z,90.77
2022-09-18T11:36:42.310Z,90.60
2022-09-18T11:37:42.391Z,91.99
2022-09-18T11:38:42.298Z,91.22
2022-09-18T11:39:42.275Z,92.34
2022-09-18T11:40:42.436Z,90.81
2022-09-18T11:41:42.289Z,91.16
2022-09-18T11:42:42.232Z,91.46
2022-09-18T11:43:42.261Z,92.90
2022-09-18T11:44:42.206Z,93.20
2022-09-18T11:45:42.209Z,93.41
2022-09-18T11:46:42.340Z,93.10
2022-09-18T11:47:42.223Z,93.51
2022-09-18T11:48:42.179Z,92.94
2022-09-18T11:49:42.245Z,93.51
2022-09-18T11:50:42.139Z,92.63
2022-09-18T11:51:42.129Z,92.63
2022-09-18T11:52:42.141Z,94.21
2022-09-18T11:53:42.126Z,93.90
2022-09-18T11:54:42.093Z,95.03
2022-09-18T11:55:42.083Z,95.40
2022-09-18T11:56:42.148Z,95.61
2022-09-18T11:57:43.263Z,94.83
2022-09-18T11:58:43.202Z,94.62
2022-09-18T11:59:43.204Z,95.34
2022-09-18T12:00:43.178Z,95.24
2022-09-18T12:01:43.185Z,94.93
2022-09-18T12:02:43.286Z,95.44
2022-09-18T12:03:43.614Z,94.73
2022-09-18T12:04:43.122Z,93.70
2022-09-18T12:05:43.142Z,94.52
2022-09-18T12:06:43.125Z,94.52
2022-09-18T12:07:42.653Z,94.42
2022-09-18T12:08:41.815Z,94.42
2022-09-18T12:09:41.723Z,95.03
2022-09-18T12:10:41.706Z,95.95
2022-09-18T12:11:41.699Z,95.34
2022-09-18T12:12:41.747Z,95.14
2022-09-18T12:13:41.708Z,95.34
2022-09-18T12:14:41.698Z,94.07
2022-09-18T12:15:41.675Z,95.29
2022-09-18T12:16:41.697Z,95.34
2022-09-18T12:17:41.620Z,95.44
2022-09-18T12:18:41.637Z,95.54
2022-09-18T12:19:41.627Z,95.86
2022-09-18T12:20:41.603Z,96.20
2022-09-18T12:21:41.552Z,96.37
2022-09-18T12:22:41.549Z,96.06
2022-09-18T12:23:41.533Z,94.73
2022-09-18T12:24:41.565Z,95.86
2022-09-18T12:25:41.544Z,96.22
2022-09-18T12:26:41.509Z,95.65
2022-09-18T12:27:41.588Z,96.26
2022-09-18T12:28:41.563Z,95.29
2022-09-18T12:29:41.488Z,95.81
2022-09-18T12:30:41.517Z,95.76
2022-09-18T12:31:41.487Z,95.61
2022-09-18T12:32:41.425Z,96.73
2022-09-18T12:33:41.447Z,96.32
2022-09-18T12:34:41.458Z,96.98
2022-09-18T12:35:41.389Z,96.98
2022-09-18T12:36:41.422Z,96.73
2022-09-18T12:37:41.361Z,96.73
2022-09-18T12:38:41.371Z,95.70
2022-09-18T12:39:42.070Z,96.22
2022-09-18T12:40:42.004Z,95.95
2022-09-18T12:41:41.986Z,97.39
2022-09-18T12:42:41.980Z,96.94
2022-09-18T12:43:41.985Z,96.94
2022-09-18T12:44:42.078Z,96.83
2022-09-18T12:45:42.037Z,96.88
2022-09-18T12:46:41.909Z,96.94
2022-09-18T12:47:43.405Z,96.94
2022-09-18T12:48:42.091Z,97.14
2022-09-18T12:50:17.071Z,94.68
2022-09-18T12:50:41.850Z,95.14
2022-09-18T12:51:41.885Z,95.34
2022-09-18T12:53:00.287Z,94.83
2022-09-18T12:53:41.815Z,95.34
2022-09-18T12:54:41.815Z,95.20